• Join FlightAware (Why Join?)
  • Login
  • US Flag 
02:18PM EDT


 

Airport Tracker/Info


-or-


 

Live Flight TrackerFlight Track Log ✈ N5167L ✈ 13-Oct-2013 ✈ KHRO - O38

Flight Track Log - Related Links

Times and Time Zones

All times are in EDT time to prevent confusion due to time zone crossing. See the N5167L flight status page for this flight to view local times or setup timezone preferences in your user account.

Time Position Orientation Groundspeed Altitude Reporting Facility
EDT Latitude Longitude Course Direction KTS MPH feet Rate Location/Type
03:35PM 36.2772 -93.7756 259° West 124 143 4,100  Level Kansas City Center
03:36PM 36.2703 -93.8186 259° West 126 145 4,100  Level Kansas City Center
03:37PM 36.2678 -93.8608 266° West 125 144 4,100 -60 Level Kansas City Center
03:38PM 36.2639 -93.9031 263° West 125 144 4,000 -60 Descending Kansas City Center
03:39PM 36.2611 -93.9450 265° West 123 142 4,000  Level Kansas City Center
03:40PM 36.2569 -93.9872 263° West 123 142 4,000  Level Kansas City Center
03:41PM 36.2531 -94.0375 265° West 123 142 4,000  Level Kansas City Center
03:42PM 36.2514 -94.0794 267° West 122 140 4,000  Level Kansas City Center
03:43PM 36.2489 -94.1211 266° West 121 139 4,000  Level Kansas City Center
03:44PM 36.2464 -94.1631 266° West 122 140 4,000  Level Kansas City Center
03:45PM 36.2447 -94.2058 267° West 123 142 4,000  Level Kansas City Center
03:46PM 36.2436 -94.2478 268° West 123 142 4,000  Level Kansas City Center
03:47PM 36.2419 -94.3003 268° West 125 144 4,000  Level Kansas City Center
03:48PM 36.2419 -94.3431 270° West 125 144 4,000 -60 Level Kansas City Center
03:49PM 36.2408 -94.3864 268° West 125 144 3,900 -60 Descending Kansas City Center
03:50PM 36.2392 -94.4289 267° West 124 143 3,900  Level Kansas City Center
03:51PM 36.2394 -94.4717 270° West 124 143 4,000  Climbing Kansas City Center
03:52PM 36.2386 -94.5142 269° West 124 143 3,900  Descending Kansas City Center
03:53PM 36.2361 -94.5564 266° West 123 142 4,000  Climbing Kansas City Center
03:54PM 36.2347 -94.6075 268° West 123 142 4,000  Level Kansas City Center
03:55PM 36.2342 -94.6503 269° West 124 143 4,000  Level Kansas City Center
03:56PM 36.2333 -94.6936 269° West 125 144 4,000  Level Kansas City Center
03:57PM 36.2311 -94.7364 266° West 125 144 4,000  Level Kansas City Center
03:58PM 36.2297 -94.7800 268° West 126 145 4,000  Level Kansas City Center
03:59PM 36.2281 -94.8217 267° West 124 143 4,000  Level Kansas City Center
04:00PM 36.2278 -94.8631 270° West 122 140 4,000  Level Kansas City Center
04:02PM 36.2267 -94.9136 268° West 122 140 4,000  Level Kansas City Center
04:03PM 36.2239 -94.9553 265° West 121 139 4,000  Level Kansas City Center
04:04PM 36.2219 -94.9969 267° West 121 139 4,000  Level Kansas City Center
04:04PM 36.2206 -95.0183 265° West 121 139 4,000  Level Kansas City Center
04:05PM 36.2211 -95.0397 272° West 122 140 4,000 60 Level Kansas City Center
04:05PM 36.2200 -95.0572 266° West 120 138 4,100  Climbing Kansas City Center
04:06PM 36.2200 -95.0797 270° West 120 138 4,000 -120 Descending Kansas City Center
04:06PM 36.2197 -95.0986 269° West 119 137 4,000  Level Kansas City Center
04:07PM 36.2172 -95.1406 266° West 124 143 4,000  Level Kansas City Center
04:08PM 36.2175 -95.1647 271° West 122 140 4,000  Level Kansas City Center
04:08PM 36.2167 -95.1819 267° West 124 143 4,000  Level Kansas City Center
04:09PM 36.2181 -95.2153 273° West 122 140 4,000  Level Kansas City Center
04:09PM 36.2183 -95.2206 274° West 120 138 4,000 60 Level Kansas City Center
04:10PM 36.2206 -95.2572 274° West 122 140 4,100 60 Climbing Kansas City Center
04:10PM 36.2200 -95.2644 265° West 122 140 4,100  Level Kansas City Center
04:11PM 36.2233 -95.3003 277° West 123 142 4,100 -120 Level Kansas City Center
04:11PM 36.2242 -95.3106 276° West 124 143 4,000 -660 Descending Kansas City Center
04:12PM 36.2261 -95.3542 273° West 132 152 3,400 -540 Descending Kansas City Center
04:13PM 36.2308 -95.3906 279° West 129 148 3,000 -540 Descending Kansas City Center
04:13PM 36.2325 -95.4025 280° West 133 153 2,800 -420 Descending Kansas City Center
04:14PM 36.2342 -95.4439 273° West 128 147 2,600 -120 Descending Kansas City Center
04:15PM 36.2381 -95.4786 278° West 128 147 2,600  Level Kansas City Center
04:15PM 36.2400 -95.4872 286° West 127 146 2,600  Level Kansas City Center
04:16PM 36.2447 -95.5292 278° West 125 144 2,600  Level Kansas City Center
04:16PM 36.2444 -95.5358 267° West 125 144 2,600  Level Kansas City Center
04:17PM 36.2481 -95.5767 276° West 122 140 2,600  Level Kansas City Center
04:18PM 36.2525 -95.6125 279° West 123 142 2,600  Level Kansas City Center